sensor_id;sensor_type;location;lat;lon;timestamp;temperature;humidity
18797;DHT22;9526;52.612;13.300;2022-09-03T00:00:04;12.10;99.90
18797;DHT22;9526;52.612;13.300;2022-09-03T00:02:37;12.10;99.90
18797;DHT22;9526;52.612;13.300;2022-09-03T00:05:05;12.10;99.90
18797;DHT22;9526;52.612;13.300;2022-09-03T00:07:38;12.10;99.90
18797;DHT22;9526;52.612;13.300;2022-09-03T00:10:12;12.00;99.90
18797;DHT22;9526;52.612;13.300;2022-09-03T00:12:42;12.10;99.90
18797;DHT22;9526;52.612;13.300;2022-09-03T00:15:10;12.00;99.90
18797;DHT22;9526;52.612;13.300;2022-09-03T00:17:37;12.00;99.90
18797;DHT22;9526;52.612;13.300;2022-09-03T00:20:06;12.00;99.90
18797;DHT22;9526;52.612;13.300;2022-09-03T00:22:37;12.00;99.90
18797;DHT22;9526;52.612;13.300;2022-09-03T00:25:04;12.00;99.90
18797;DHT22;9526;52.612;13.300;2022-09-03T00:27:37;12.00;99.90
18797;DHT22;9526;52.612;13.300;2022-09-03T00:30:04;12.00;99.90
18797;DHT22;9526;52.612;13.300;2022-09-03T00:32:38;12.00;99.90
18797;DHT22;9526;52.612;13.300;2022-09-03T00:35:05;12.00;99.90
18797;DHT22;9526;52.612;13.300;2022-09-03T00:37:34;11.90;99.90
18797;DHT22;9526;52.612;13.300;2022-09-03T00:39:59;11.90;99.90
18797;DHT22;9526;52.612;13.300;2022-09-03T00:42:37;11.90;99.90
18797;DHT22;9526;52.612;13.300;2022-09-03T00:45:12;11.90;99.90
18797;DHT22;9526;52.612;13.300;2022-09-03T00:47:52;11.80;99.90
18797;DHT22;9526;52.612;13.300;2022-09-03T00:50:31;11.80;99.90
18797;DHT22;9526;52.612;13.300;2022-09-03T00:53:09;11.80;99.90
18797;DHT22;9526;52.612;13.300;2022-09-03T00:55:44;11.80;99.90
18797;DHT22;9526;52.612;13.300;2022-09-03T00:58:25;11.80;99.90
18797;DHT22;9526;52.612;13.300;2022-09-03T01:00:54;11.80;99.90
18797;DHT22;9526;52.612;13.300;2022-09-03T01:03:25;11.80;99.90
18797;DHT22;9526;52.612;13.300;2022-09-03T01:06:05;11.70;99.90
18797;DHT22;9526;52.612;13.300;2022-09-03T01:08:54;11.70;99.90
18797;DHT22;9526;52.612;13.300;2022-09-03T01:11:32;11.70;99.90
18797;DHT22;9526;52.612;13.300;2022-09-03T01:14:14;11.70;99.90
18797;DHT22;9526;52.612;13.300;2022-09-03T01:16:49;11.70;99.90
18797;DHT22;9526;52.612;13.300;2022-09-03T01:22:37;11.70;99.90
18797;DHT22;9526;52.612;13.300;2022-09-03T01:25:27;11.70;99.90
18797;DHT22;9526;52.612;13.300;2022-09-03T01:28:09;11.70;99.90
18797;DHT22;9526;52.612;13.300;2022-09-03T01:30:50;11.70;99.90
18797;DHT22;9526;52.612;13.300;2022-09-03T01:33:24;11.70;99.90
18797;DHT22;9526;52.612;13.300;2022-09-03T01:35:58;11.70;99.90
18797;DHT22;9526;52.612;13.300;2022-09-03T01:38:30;11.70;99.90
18797;DHT22;9526;52.612;13.300;2022-09-03T01:41:05;11.70;99.90
18797;DHT22;9526;52.612;13.300;2022-09-03T01:44:03;11.70;99.90
18797;DHT22;9526;52.612;13.300;2022-09-03T01:46:36;11.70;99.90
18797;DHT22;9526;52.612;13.300;2022-09-03T01:49:10;11.70;99.90
18797;DHT22;9526;52.612;13.300;2022-09-03T01:51:42;11.60;99.90
18797;DHT22;9526;52.612;13.300;2022-09-03T01:54:45;11.60;99.90
18797;DHT22;9526;52.612;13.300;2022-09-03T01:57:32;11.60;99.90
18797;DHT22;9526;52.612;13.300;2022-09-03T02:00:07;11.60;99.90
18797;DHT22;9526;52.612;13.300;2022-09-03T02:02:34;11.50;99.90
18797;DHT22;9526;52.612;13.300;2022-09-03T02:05:01;11.50;99.90
18797;DHT22;9526;52.612;13.300;2022-09-03T02:07:32;11.40;99.90
18797;DHT22;9526;52.612;13.300;2022-09-03T02:09:57;11.40;99.90
18797;DHT22;9526;52.612;13.300;2022-09-03T02:12:20;11.40;99.90
18797;DHT22;9526;52.612;13.300;2022-09-03T02:14:44;11.40;99.90
18797;DHT22;9526;52.612;13.300;2022-09-03T02:17:10;11.30;99.90
18797;DHT22;9526;52.612;13.300;2022-09-03T02:19:34;11.30;99.90
18797;DHT22;9526;52.612;13.300;2022-09-03T02:21:59;11.20;99.90
18797;DHT22;9526;52.612;13.300;2022-09-03T02:24:23;11.20;99.90
18797;DHT22;9526;52.612;13.300;2022-09-03T02:26:47;11.20;99.90
18797;DHT22;9526;52.612;13.300;2022-09-03T02:29:12;11.20;99.90
18797;DHT22;9526;52.612;13.300;2022-09-03T02:31:35;11.10;99.90
18797;DHT22;9526;52.612;13.300;2022-09-03T02:34:01;11.10;99.90
18797;DHT22;9526;52.612;13.300;2022-09-03T02:36:27;11.00;99.90
18797;DHT22;9526;52.612;13.300;2022-09-03T02:38:53;11.00;99.90
18797;DHT22;9526;52.612;13.300;2022-09-03T02:41:17;11.00;99.90
18797;DHT22;9526;52.612;13.300;2022-09-03T02:43:45;11.00;99.90
18797;DHT22;9526;52.612;13.300;2022-09-03T02:46:17;10.90;99.90
18797;DHT22;9526;52.612;13.300;2022-09-03T02:48:45;10.90;99.90
18797;DHT22;9526;52.612;13.300;2022-09-03T02:51:10;10.80;99.90
18797;DHT22;9526;52.612;13.300;2022-09-03T02:53:35;10.80;99.90
18797;DHT22;9526;52.612;13.300;2022-09-03T02:55:59;10.80;99.90
18797;DHT22;9526;52.612;13.300;2022-09-03T02:58:23;10.80;99.90
18797;DHT22;9526;52.612;13.300;2022-09-03T03:00:47;10.80;99.90
18797;DHT22;9526;52.612;13.300;2022-09-03T03:03:11;10.70;99.90
18797;DHT22;9526;52.612;13.300;2022-09-03T03:05:41;10.70;99.90
18797;DHT22;9526;52.612;13.300;2022-09-03T03:08:08;10.60;99.90
18797;DHT22;9526;52.612;13.300;2022-09-03T03:10:34;10.70;99.90
18797;DHT22;9526;52.612;13.300;2022-09-03T03:12:58;10.60;99.90
18797;DHT22;9526;52.612;13.300;2022-09-03T03:15:22;10.60;99.90
18797;DHT22;9526;52.612;13.300;2022-09-03T03:17:45;10.50;99.90
18797;DHT22;9526;52.612;13.300;2022-09-03T03:20:10;10.50;99.90
18797;DHT22;9526;52.612;13.300;2022-09-03T03:22:33;10.50;99.90
18797;DHT22;9526;52.612;13.300;2022-09-03T03:24:58;10.50;99.90
18797;DHT22;9526;52.612;13.300;2022-09-03T03:27:22;10.50;99.90
18797;DHT22;9526;52.612;13.300;2022-09-03T03:29:46;10.40;99.90
18797;DHT22;9526;52.612;13.300;2022-09-03T03:32:11;10.40;99.90
18797;DHT22;9526;52.612;13.300;2022-09-03T03:34:35;10.40;99.90
18797;DHT22;9526;52.612;13.300;2022-09-03T03:36:59;10.40;99.90
18797;DHT22;9526;52.612;13.300;2022-09-03T03:39:23;10.40;99.90
18797;DHT22;9526;52.612;13.300;2022-09-03T03:41:48;10.30;99.90
18797;DHT22;9526;52.612;13.300;2022-09-03T03:44:13;10.30;99.90
18797;DHT22;9526;52.612;13.300;2022-09-03T03:46:39;10.30;99.90
18797;DHT22;9526;52.612;13.300;2022-09-03T03:49:03;10.30;99.90
18797;DHT22;9526;52.612;13.300;2022-09-03T03:51:28;10.20;99.90
18797;DHT22;9526;52.612;13.300;2022-09-03T03:53:54;10.20;99.90
18797;DHT22;9526;52.612;13.300;2022-09-03T03:56:26;10.20;99.90
18797;DHT22;9526;52.612;13.300;2022-09-03T03:58:51;10.20;99.90
18797;DHT22;9526;52.612;13.300;2022-09-03T04:01:17;10.10;99.90
18797;DHT22;9526;52.612;13.300;2022-09-03T04:03:42;10.10;99.90
18797;DHT22;9526;52.612;13.300;2022-09-03T04:06:07;10.10;99.90
18797;DHT22;9526;52.612;13.300;2022-09-03T04:08:33;10.10;99.90
18797;DHT22;9526;52.612;13.300;2022-09-03T04:10:59;10.10;99.90
18797;DHT22;9526;52.612;13.300;2022-09-03T04:13:24;10.10;99.90
18797;DHT22;9526;52.612;13.300;2022-09-03T04:15:59;10.20;99.90
18797;DHT22;9526;52.612;13.300;2022-09-03T04:18:24;10.20;99.90
18797;DHT22;9526;52.612;13.300;2022-09-03T04:20:47;10.20;99.90
18797;DHT22;9526;52.612;13.300;2022-09-03T04:23:11;10.20;99.90
18797;DHT22;9526;52.612;13.300;2022-09-03T04:25:35;10.30;99.90
18797;DHT22;9526;52.612;13.300;2022-09-03T04:27:58;10.30;99.90
18797;DHT22;9526;52.612;13.300;2022-09-03T04:30:26;10.30;99.90
18797;DHT22;9526;52.612;13.300;2022-09-03T04:32:51;10.40;99.90
18797;DHT22;9526;52.612;13.300;2022-09-03T04:35:15;10.40;99.90
18797;DHT22;9526;52.612;13.300;2022-09-03T04:37:39;10.40;99.90
18797;DHT22;9526;52.612;13.300;2022-09-03T04:40:03;10.50;99.90
18797;DHT22;9526;52.612;13.300;2022-09-03T04:42:28;10.50;99.90
18797;DHT22;9526;52.612;13.300;2022-09-03T04:44:51;10.60;99.90
18797;DHT22;9526;52.612;13.300;2022-09-03T04:47:15;10.60;99.90
18797;DHT22;9526;52.612;13.300;2022-09-03T04:49:40;10.70;99.90
18797;DHT22;9526;52.612;13.300;2022-09-03T04:52:04;10.70;99.90
18797;DHT22;9526;52.612;13.300;2022-09-03T04:54:28;10.70;99.90
18797;DHT22;9526;52.612;13.300;2022-09-03T04:56:51;10.80;99.90
18797;DHT22;9526;52.612;13.300;2022-09-03T04:59:15;10.90;99.90
18797;DHT22;9526;52.612;13.300;2022-09-03T05:01:39;10.80;99.90
18797;DHT22;9526;52.612;13.300;2022-09-03T05:04:03;10.90;99.90
18797;DHT22;9526;52.612;13.300;2022-09-03T05:06:30;10.90;99.90
18797;DHT22;9526;52.612;13.300;2022-09-03T05:08:55;11.00;99.90
18797;DHT22;9526;52.612;13.300;2022-09-03T05:11:19;11.10;99.90
18797;DHT22;9526;52.612;13.300;2022-09-03T05:13:45;11.10;99.90
18797;DHT22;9526;52.612;13.300;2022-09-03T05:16:10;11.20;99.90
18797;DHT22;9526;52.612;13.300;2022-09-03T05:18:34;11.30;99.90
18797;DHT22;9526;52.612;13.300;2022-09-03T05:20:59;11.30;99.90
18797;DHT22;9526;52.612;13.300;2022-09-03T05:23:25;11.40;99.90
18797;DHT22;9526;52.612;13.300;2022-09-03T05:25:54;11.50;99.90
18797;DHT22;9526;52.612;13.300;2022-09-03T05:28:19;11.50;99.90
18797;DHT22;9526;52.612;13.300;2022-09-03T05:30:42;11.60;99.90
18797;DHT22;9526;52.612;13.300;2022-09-03T05:33:06;11.70;99.90
18797;DHT22;9526;52.612;13.300;2022-09-03T05:35:30;11.70;99.90
18797;DHT22;9526;52.612;13.300;2022-09-03T05:37:54;11.80;99.90
18797;DHT22;9526;52.612;13.300;2022-09-03T05:40:19;11.80;99.90
18797;DHT22;9526;52.612;13.300;2022-09-03T05:42:43;11.90;99.90
18797;DHT22;9526;52.612;13.300;2022-09-03T05:45:08;11.90;99.90
18797;DHT22;9526;52.612;13.300;2022-09-03T05:47:32;12.00;99.90
18797;DHT22;9526;52.612;13.300;2022-09-03T05:49:56;12.00;99.90
18797;DHT22;9526;52.612;13.300;2022-09-03T05:52:20;12.00;99.90
18797;DHT22;9526;52.612;13.300;2022-09-03T05:54:44;12.10;99.90
18797;DHT22;9526;52.612;13.300;2022-09-03T05:57:10;12.10;99.90
18797;DHT22;9526;52.612;13.300;2022-09-03T05:59:34;12.20;99.90
18797;DHT22;9526;52.612;13.300;2022-09-03T06:01:57;12.30;99.90
18797;DHT22;9526;52.612;13.300;2022-09-03T06:04:21;12.30;99.90
18797;DHT22;9526;52.612;13.300;2022-09-03T06:06:46;12.40;99.90
18797;DHT22;9526;52.612;13.300;2022-09-03T06:09:12;12.50;99.90
18797;DHT22;9526;52.612;13.300;2022-09-03T06:11:38;12.60;99.90
18797;DHT22;9526;52.612;13.300;2022-09-03T06:14:07;12.80;99.90
18797;DHT22;9526;52.612;13.300;2022-09-03T06:16:33;12.90;99.90
18797;DHT22;9526;52.612;13.300;2022-09-03T06:18:58;13.00;99.90
18797;DHT22;9526;52.612;13.300;2022-09-03T06:21:22;13.10;99.90
18797;DHT22;9526;52.612;13.300;2022-09-03T06:23:48;13.30;99.90
18797;DHT22;9526;52.612;13.300;2022-09-03T06:26:13;13.40;99.90
18797;DHT22;9526;52.612;13.300;2022-09-03T06:28:38;13.50;99.90
18797;DHT22;9526;52.612;13.300;2022-09-03T06:31:07;14.10;99.90
18797;DHT22;9526;52.612;13.300;2022-09-03T06:33:34;14.80;99.90
18797;DHT22;9526;52.612;13.300;2022-09-03T06:35:59;15.60;99.90
18797;DHT22;9526;52.612;13.300;2022-09-03T06:38:30;16.00;99.90
18797;DHT22;9526;52.612;13.300;2022-09-03T06:40:58;16.20;99.90
18797;DHT22;9526;52.612;13.300;2022-09-03T06:43:23;16.50;99.90
18797;DHT22;9526;52.612;13.300;2022-09-03T06:45:54;17.00;99.90
18797;DHT22;9526;52.612;13.300;2022-09-03T06:48:20;17.50;99.90
18797;DHT22;9526;52.612;13.300;2022-09-03T06:50:52;18.40;99.90
18797;DHT22;9526;52.612;13.300;2022-09-03T06:53:17;18.70;99.90
18797;DHT22;9526;52.612;13.300;2022-09-03T06:55:40;18.60;99.90
18797;DHT22;9526;52.612;13.300;2022-09-03T06:58:04;19.00;99.90
18797;DHT22;9526;52.612;13.300;2022-09-03T07:00:28;18.20;99.90
18797;DHT22;9526;52.612;13.300;2022-09-03T07:02:55;18.10;99.90
18797;DHT22;9526;52.612;13.300;2022-09-03T07:05:22;17.80;99.90
18797;DHT22;9526;52.612;13.300;2022-09-03T07:07:47;17.70;99.90
18797;DHT22;9526;52.612;13.300;2022-09-03T07:10:11;17.40;99.90
18797;DHT22;9526;52.612;13.300;2022-09-03T07:12:37;17.10;99.90
18797;DHT22;9526;52.612;13.300;2022-09-03T07:15:00;16.90;99.90
18797;DHT22;9526;52.612;13.300;2022-09-03T07:17:24;17.10;99.90
18797;DHT22;9526;52.612;13.300;2022-09-03T07:19:48;17.10;99.90
18797;DHT22;9526;52.612;13.300;2022-09-03T07:22:13;17.10;99.90
18797;DHT22;9526;52.612;13.300;2022-09-03T07:24:36;17.00;99.90
18797;DHT22;9526;52.612;13.300;2022-09-03T07:27:00;17.00;99.90
18797;DHT22;9526;52.612;13.300;2022-09-03T07:29:24;17.00;99.90
18797;DHT22;9526;52.612;13.300;2022-09-03T07:31:49;16.90;99.90
18797;DHT22;9526;52.612;13.300;2022-09-03T07:34:14;17.20;99.90
18797;DHT22;9526;52.612;13.300;2022-09-03T07:36:39;17.00;99.90
18797;DHT22;9526;52.612;13.300;2022-09-03T07:39:06;17.10;99.90
18797;DHT22;9526;52.612;13.300;2022-09-03T07:41:30;17.10;99.90
18797;DHT22;9526;52.612;13.300;2022-09-03T07:43:54;17.00;99.90
18797;DHT22;9526;52.612;13.300;2022-09-03T07:46:20;16.90;99.90
18797;DHT22;9526;52.612;13.300;2022-09-03T07:48:45;16.80;99.90
18797;DHT22;9526;52.612;13.300;2022-09-03T07:51:11;16.80;99.90
18797;DHT22;9526;52.612;13.300;2022-09-03T07:53:35;16.90;99.90
18797;DHT22;9526;52.612;13.300;2022-09-03T07:56:05;17.00;99.90
18797;DHT22;9526;52.612;13.300;2022-09-03T07:58:31;17.20;99.90
18797;DHT22;9526;52.612;13.300;2022-09-03T08:00:56;17.20;99.90
18797;DHT22;9526;52.612;13.300;2022-09-03T08:03:20;17.20;99.90
18797;DHT22;9526;52.612;13.300;2022-09-03T08:05:43;17.40;99.90
18797;DHT22;9526;52.612;13.300;2022-09-03T08:08:07;17.40;99.90
18797;DHT22;9526;52.612;13.300;2022-09-03T08:10:36;17.40;99.90
18797;DHT22;9526;52.612;13.300;2022-09-03T08:13:03;17.50;99.90
18797;DHT22;9526;52.612;13.300;2022-09-03T08:15:26;17.50;99.90
18797;DHT22;9526;52.612;13.300;2022-09-03T08:17:50;17.50;99.90
18797;DHT22;9526;52.612;13.300;2022-09-03T08:20:14;17.60;99.90
18797;DHT22;9526;52.612;13.300;2022-09-03T08:22:38;17.60;99.90
18797;DHT22;9526;52.612;13.300;2022-09-03T08:25:02;17.60;99.90
18797;DHT22;9526;52.612;13.300;2022-09-03T08:27:28;17.50;99.90
18797;DHT22;9526;52.612;13.300;2022-09-03T08:29:57;17.70;99.90
18797;DHT22;9526;52.612;13.300;2022-09-03T08:32:21;17.70;99.90
18797;DHT22;9526;52.612;13.300;2022-09-03T08:34:44;17.70;99.90
18797;DHT22;9526;52.612;13.300;2022-09-03T08:37:08;17.70;99.90
18797;DHT22;9526;52.612;13.300;2022-09-03T08:39:33;17.70;99.90
18797;DHT22;9526;52.612;13.300;2022-09-03T08:42:17;17.80;99.90
18797;DHT22;9526;52.612;13.300;2022-09-03T08:44:45;18.00;99.90
18797;DHT22;9526;52.612;13.300;2022-09-03T08:47:15;17.90;99.90
18797;DHT22;9526;52.612;13.300;2022-09-03T08:49:45;17.90;99.90
18797;DHT22;9526;52.612;13.300;2022-09-03T08:52:20;18.10;99.90
18797;DHT22;9526;52.612;13.300;2022-09-03T08:54:48;18.30;99.90
18797;DHT22;9526;52.612;13.300;2022-09-03T08:57:14;18.40;99.90
18797;DHT22;9526;52.612;13.300;2022-09-03T08:59:39;18.40;99.90
18797;DHT22;9526;52.612;13.300;2022-09-03T09:02:11;18.50;99.90
18797;DHT22;9526;52.612;13.300;2022-09-03T09:04:52;18.50;99.90
18797;DHT22;9526;52.612;13.300;2022-09-03T09:07:27;18.60;99.90
18797;DHT22;9526;52.612;13.300;2022-09-03T09:10:01;18.60;99.90
18797;DHT22;9526;52.612;13.300;2022-09-03T09:12:34;18.80;99.90
18797;DHT22;9526;52.612;13.300;2022-09-03T09:15:11;18.80;99.90
18797;DHT22;9526;52.612;13.300;2022-09-03T09:17:48;18.90;99.90
18797;DHT22;9526;52.612;13.300;2022-09-03T09:20:25;19.00;99.90
18797;DHT22;9526;52.612;13.300;2022-09-03T09:22:56;19.20;99.90
18797;DHT22;9526;52.612;13.300;2022-09-03T09:25:25;19.30;99.90
18797;DHT22;9526;52.612;13.300;2022-09-03T09:27:55;19.40;99.90
18797;DHT22;9526;52.612;13.300;2022-09-03T09:30:21;19.40;99.90
18797;DHT22;9526;52.612;13.300;2022-09-03T09:32:46;19.50;99.90
18797;DHT22;9526;52.612;13.300;2022-09-03T09:35:10;19.60;99.90
18797;DHT22;9526;52.612;13.300;2022-09-03T09:37:44;19.70;99.90
18797;DHT22;9526;52.612;13.300;2022-09-03T09:40:09;19.90;99.90
18797;DHT22;9526;52.612;13.300;2022-09-03T09:42:33;20.00;99.90
18797;DHT22;9526;52.612;13.300;2022-09-03T09:45:08;20.20;99.90
18797;DHT22;9526;52.612;13.300;2022-09-03T09:47:37;20.40;99.90
18797;DHT22;9526;52.612;13.300;2022-09-03T09:50:13;20.40;99.90
18797;DHT22;9526;52.612;13.300;2022-09-03T09:52:47;20.50;99.90
18797;DHT22;9526;52.612;13.300;2022-09-03T09:55:16;20.70;99.90
18797;DHT22;9526;52.612;13.300;2022-09-03T09:57:40;20.90;99.40
18797;DHT22;9526;52.612;13.300;2022-09-03T10:00:05;21.00;99.90
18797;DHT22;9526;52.612;13.300;2022-09-03T10:02:35;21.40;99.50
18797;DHT22;9526;52.612;13.300;2022-09-03T10:05:13;21.50;96.60
18797;DHT22;9526;52.612;13.300;2022-09-03T10:07:38;21.70;98.40
18797;DHT22;9526;52.612;13.300;2022-09-03T10:10:04;22.00;97.40
18797;DHT22;9526;52.612;13.300;2022-09-03T10:12:35;22.10;96.50
18797;DHT22;9526;52.612;13.300;2022-09-03T10:15:07;22.20;95.50
18797;DHT22;9526;52.612;13.300;2022-09-03T10:17:48;22.60;97.40
18797;DHT22;9526;52.612;13.300;2022-09-03T10:20:27;22.80;92.80
18797;DHT22;9526;52.612;13.300;2022-09-03T10:23:02;22.70;90.80
18797;DHT22;9526;52.612;13.300;2022-09-03T10:25:36;22.90;91.90
18797;DHT22;9526;52.612;13.300;2022-09-03T10:28:02;22.70;90.80
18797;DHT22;9526;52.612;13.300;2022-09-03T10:30:27;22.80;91.20
18797;DHT22;9526;52.612;13.300;2022-09-03T10:33:01;22.70;89.90
18797;DHT22;9526;52.612;13.300;2022-09-03T10:35:30;22.70;89.00
18797;DHT22;9526;52.612;13.300;2022-09-03T10:38:05;22.80;90.90
18797;DHT22;9526;52.612;13.300;2022-09-03T10:40:38;22.80;89.90
18797;DHT22;9526;52.612;13.300;2022-09-03T10:43:21;23.20;91.90
18797;DHT22;9526;52.612;13.300;2022-09-03T10:46:08;23.40;90.50
18797;DHT22;9526;52.612;13.300;2022-09-03T10:48:42;23.30;85.90
18797;DHT22;9526;52.612;13.300;2022-09-03T10:51:18;23.20;83.40
18797;DHT22;9526;52.612;13.300;2022-09-03T10:54:04;23.30;87.80
18797;DHT22;9526;52.612;13.300;2022-09-03T10:56:38;23.40;83.00
18797;DHT22;9526;52.612;13.300;2022-09-03T10:59:16;23.40;83.20
18797;DHT22;9526;52.612;13.300;2022-09-03T11:01:59;23.10;81.60
18797;DHT22;9526;52.612;13.300;2022-09-03T11:04:44;23.00;85.10
18797;DHT22;9526;52.612;13.300;2022-09-03T11:07:13;23.00;85.30
18797;DHT22;9526;52.612;13.300;2022-09-03T11:09:47;22.70;83.40
18797;DHT22;9526;52.612;13.300;2022-09-03T11:12:18;22.70;83.30
18797;DHT22;9526;52.612;13.300;2022-09-03T11:14:49;22.70;87.30
18797;DHT22;9526;52.612;13.300;2022-09-03T11:17:21;22.60;83.50
18797;DHT22;9526;52.612;13.300;2022-09-03T11:19:51;22.60;88.70
18797;DHT22;9526;52.612;13.300;2022-09-03T11:22:18;22.60;85.00
18797;DHT22;9526;52.612;13.300;2022-09-03T11:24:48;22.50;82.60
18797;DHT22;9526;52.612;13.300;2022-09-03T11:27:21;22.60;85.70
18797;DHT22;9526;52.612;13.300;2022-09-03T11:29:56;22.70;85.00
18797;DHT22;9526;52.612;13.300;2022-09-03T11:32:25;22.80;90.20
18797;DHT22;9526;52.612;13.300;2022-09-03T11:34:54;22.70;87.90
18797;DHT22;9526;52.612;13.300;2022-09-03T11:37:21;22.60;88.90
18797;DHT22;9526;52.612;13.300;2022-09-03T11:39:56;22.60;90.70
18797;DHT22;9526;52.612;13.300;2022-09-03T11:42:28;22.80;87.40
18797;DHT22;9526;52.612;13.300;2022-09-03T11:44:59;22.70;90.10
18797;DHT22;9526;52.612;13.300;2022-09-03T11:47:38;22.80;89.10
18797;DHT22;9526;52.612;13.300;2022-09-03T11:50:07;23.00;88.80
18797;DHT22;9526;52.612;13.300;2022-09-03T11:52:33;22.60;86.40
18797;DHT22;9526;52.612;13.300;2022-09-03T11:55:01;22.40;85.70
18797;DHT22;9526;52.612;13.300;2022-09-03T11:57:28;22.60;86.30
18797;DHT22;9526;52.612;13.300;2022-09-03T11:59:52;22.50;87.30
18797;DHT22;9526;52.612;13.300;2022-09-03T12:02:25;22.30;85.50
18797;DHT22;9526;52.612;13.300;2022-09-03T12:04:57;22.20;85.60
18797;DHT22;9526;52.612;13.300;2022-09-03T12:07:43;21.90;87.70
18797;DHT22;9526;52.612;13.300;2022-09-03T12:10:38;21.90;86.20
18797;DHT22;9526;52.612;13.300;2022-09-03T12:13:24;22.00;87.10
18797;DHT22;9526;52.612;13.300;2022-09-03T12:18:47;22.30;90.60
18797;DHT22;9526;52.612;13.300;2022-09-03T12:21:16;22.30;86.20
18797;DHT22;9526;52.612;13.300;2022-09-03T12:23:43;22.10;87.40
18797;DHT22;9526;52.612;13.300;2022-09-03T12:26:08;21.90;85.60
18797;DHT22;9526;52.612;13.300;2022-09-03T12:28:37;21.80;87.20
18797;DHT22;9526;52.612;13.300;2022-09-03T12:31:07;21.80;87.40
18797;DHT22;9526;52.612;13.300;2022-09-03T12:33:42;21.90;87.20
18797;DHT22;9526;52.612;13.300;2022-09-03T12:36:08;21.80;87.00
18797;DHT22;9526;52.612;13.300;2022-09-03T12:38:32;21.80;86.60
18797;DHT22;9526;52.612;13.300;2022-09-03T12:41:26;21.90;86.70
18797;DHT22;9526;52.612;13.300;2022-09-03T12:43:53;21.90;87.50
18797;DHT22;9526;52.612;13.300;2022-09-03T12:46:22;21.90;84.70
18797;DHT22;9526;52.612;13.300;2022-09-03T12:48:56;21.80;86.00
18797;DHT22;9526;52.612;13.300;2022-09-03T12:51:44;22.10;87.10
18797;DHT22;9526;52.612;13.300;2022-09-03T12:54:14;22.30;84.00
18797;DHT22;9526;52.612;13.300;2022-09-03T12:56:40;22.30;83.90
18797;DHT22;9526;52.612;13.300;2022-09-03T12:59:07;22.40;82.30
18797;DHT22;9526;52.612;13.300;2022-09-03T13:01:42;22.50;84.80
18797;DHT22;9526;52.612;13.300;2022-09-03T13:04:09;22.50;83.90
18797;DHT22;9526;52.612;13.300;2022-09-03T13:06:45;22.50;83.80
18797;DHT22;9526;52.612;13.300;2022-09-03T13:09:13;22.50;83.80
18797;DHT22;9526;52.612;13.300;2022-09-03T13:11:37;22.80;79.60
18797;DHT22;9526;52.612;13.300;2022-09-03T13:14:08;22.80;82.30
18797;DHT22;9526;52.612;13.300;2022-09-03T13:16:50;22.70;80.30
18797;DHT22;9526;52.612;13.300;2022-09-03T13:19:29;22.70;80.30
18797;DHT22;9526;52.612;13.300;2022-09-03T13:22:07;22.60;80.80
18797;DHT22;9526;52.612;13.300;2022-09-03T13:27:41;22.50;81.10
18797;DHT22;9526;52.612;13.300;2022-09-03T13:30:11;22.50;81.90
18797;DHT22;9526;52.612;13.300;2022-09-03T13:32:52;22.60;81.30
18797;DHT22;9526;52.612;13.300;2022-09-03T13:35:28;22.70;81.20
18797;DHT22;9526;52.612;13.300;2022-09-03T13:37:59;22.70;83.10
18797;DHT22;9526;52.612;13.300;2022-09-03T13:40:35;22.90;86.00
18797;DHT22;9526;52.612;13.300;2022-09-03T13:43:09;22.90;83.70
18797;DHT22;9526;52.612;13.300;2022-09-03T13:45:49;22.80;79.10
18797;DHT22;9526;52.612;13.300;2022-09-03T13:48:19;22.80;81.30
18797;DHT22;9526;52.612;13.300;2022-09-03T13:51:10;22.80;81.10
18797;DHT22;9526;52.612;13.300;2022-09-03T13:53:44;22.50;79.60
18797;DHT22;9526;52.612;13.300;2022-09-03T13:56:33;22.60;80.60
18797;DHT22;9526;52.612;13.300;2022-09-03T13:59:04;22.70;81.20
18797;DHT22;9526;52.612;13.300;2022-09-03T14:01:46;22.70;81.30
18797;DHT22;9526;52.612;13.300;2022-09-03T14:04:42;22.50;81.10
18797;DHT22;9526;52.612;13.300;2022-09-03T14:07:14;22.50;83.90
18797;DHT22;9526;52.612;13.300;2022-09-03T14:09:53;22.50;82.40
18797;DHT22;9526;52.612;13.300;2022-09-03T14:12:33;22.50;83.00
18797;DHT22;9526;52.612;13.300;2022-09-03T14:15:09;22.50;81.80
18797;DHT22;9526;52.612;13.300;2022-09-03T14:17:45;22.30;79.90
18797;DHT22;9526;52.612;13.300;2022-09-03T14:20:16;22.50;82.10
18797;DHT22;9526;52.612;13.300;2022-09-03T14:22:49;22.50;80.00
18797;DHT22;9526;52.612;13.300;2022-09-03T14:25:17;22.50;79.20
18797;DHT22;9526;52.612;13.300;2022-09-03T14:27:42;22.70;81.70
18797;DHT22;9526;52.612;13.300;2022-09-03T14:30:17;22.60;80.20
18797;DHT22;9526;52.612;13.300;2022-09-03T14:32:53;22.50;81.40
18797;DHT22;9526;52.612;13.300;2022-09-03T14:35:32;22.60;80.50
18797;DHT22;9526;52.612;13.300;2022-09-03T14:41:46;22.70;80.30
18797;DHT22;9526;52.612;13.300;2022-09-03T14:44:29;22.60;81.80
18797;DHT22;9526;52.612;13.300;2022-09-03T14:47:15;22.80;87.40
18797;DHT22;9526;52.612;13.300;2022-09-03T14:50:24;22.70;80.10
18797;DHT22;9526;52.612;13.300;2022-09-03T14:53:12;22.60;82.80
18797;DHT22;9526;52.612;13.300;2022-09-03T14:56:09;22.70;80.70
18797;DHT22;9526;52.612;13.300;2022-09-03T14:59:08;22.80;81.10
18797;DHT22;9526;52.612;13.300;2022-09-03T15:01:41;22.70;81.00
18797;DHT22;9526;52.612;13.300;2022-09-03T15:04:31;22.70;78.90
18797;DHT22;9526;52.612;13.300;2022-09-03T15:07:23;22.70;81.90
18797;DHT22;9526;52.612;13.300;2022-09-03T15:09:59;22.60;79.00
18797;DHT22;9526;52.612;13.300;2022-09-03T15:12:33;22.60;78.00
18797;DHT22;9526;52.612;13.300;2022-09-03T15:15:04;22.50;78.20
18797;DHT22;9526;52.612;13.300;2022-09-03T15:17:41;22.60;80.90
18797;DHT22;9526;52.612;13.300;2022-09-03T15:20:34;22.50;79.10
18797;DHT22;9526;52.612;13.300;2022-09-03T15:23:19;22.60;80.70
18797;DHT22;9526;52.612;13.300;2022-09-03T15:29:14;22.50;80.40
18797;DHT22;9526;52.612;13.300;2022-09-03T15:31:54;22.40;80.80
18797;DHT22;9526;52.612;13.300;2022-09-03T15:34:38;22.40;79.10
18797;DHT22;9526;52.612;13.300;2022-09-03T15:37:13;22.30;79.50
18797;DHT22;9526;52.612;13.300;2022-09-03T15:39:44;22.20;79.60
18797;DHT22;9526;52.612;13.300;2022-09-03T15:42:15;22.20;82.60
18797;DHT22;9526;52.612;13.300;2022-09-03T15:44:46;22.20;80.70
18797;DHT22;9526;52.612;13.300;2022-09-03T15:47:12;22.10;80.10
18797;DHT22;9526;52.612;13.300;2022-09-03T15:50:18;22.10;80.20
18797;DHT22;9526;52.612;13.300;2022-09-03T15:52:54;22.00;79.40
18797;DHT22;9526;52.612;13.300;2022-09-03T15:55:30;22.00;79.80
18797;DHT22;9526;52.612;13.300;2022-09-03T15:57:59;21.90;80.60
18797;DHT22;9526;52.612;13.300;2022-09-03T16:00:30;21.80;79.90
18797;DHT22;9526;52.612;13.300;2022-09-03T16:03:06;21.80;79.20
18797;DHT22;9526;52.612;13.300;2022-09-03T16:05:40;21.80;80.70